Impacts METAR Board
IDs:

KCFD - Bryan/Coulter Fld, TX, US

Updated at: 1300 UTC 16 Jul 2019
Potential Impact None Slight Moderate High
Time 16/01Z 16/02Z 16/03Z 16/04Z 16/05Z 16/06Z 16/07Z 16/08Z 16/09Z 16/10Z 16/11Z 16/12Z 16/13Z
Temp88 85 83 84 84 83 82 81 81 81 80 81 82
Dewpt76 77 80 79 79 81 82 81 81 81 80 81 82
Altim29.90 29.90 29.92 29.94 29.95 29.96 29.97 29.97 29.98 29.98 30.00 30.00 30.02
VIS10 10 10 10 10 10 10 10 10 10 10 10 10
CIG-- -- -- -- -- -- -- 11 11 9 7 7 7
CoverSCTCLRCLRCLRCLRCLRSCTBKNOVCOVCOVCOVCOVC
FltCatVFRVFRVFRVFRVFRVFRVFRMVFRMVFRIFRIFRIFRIFR
WX--------------------------
WDir120130140160160170180190190180190180180
WSpd6 9 7 8 7 9 8 7 5 6 5 5 6
WGst-- -- -- -- -- 14 -- -- -- -- -- -- --
Raw hourly METARs
KCFD 160055Z AUTO 12006KT 10SM SCT065 31/25 A2990 RMK AO2 T03130247
KCFD 160155Z AUTO 13009KT 10SM CLR 29/25 A2990 RMK AO2 T02920251
KCFD 160255Z AUTO 14007KT 10SM CLR 28/27 A2992 RMK AO2 T02840269
KCFD 160355Z AUTO 16008KT 10SM CLR 29/26 A2994 RMK AO2 T02900263
KCFD 160455Z AUTO 16007KT 10SM CLR 29/26 A2995 RMK AO2 T02870262
KCFD 160555Z AUTO 17009G14KT 10SM CLR 28/27 A2996 RMK AO2 T02810270 10332 20281 403480240
KCFD 160655Z AUTO 18008KT 10SM SCT013 28/28 A2997 RMK AO2 T02760275
KCFD 160755Z AUTO 19007KT 10SM BKN011 27/27 A2997 RMK AO2 T02710271
KCFD 160855Z AUTO 19005KT 10SM BKN011 OVC017 27/27 A2998 RMK AO2 T02710271
KCFD 160955Z AUTO 18006KT 10SM OVC009 27/27 A2998 RMK AO2 T02700270
KCFD 161055Z AUTO 19005KT 10SM OVC007 27/27 A3000 RMK AO2 T02690269
KCFD 161155Z AUTO 18005KT 10SM OVC007 27/27 A3000 RMK AO2 T02700270 10281 20268
KCFD 161255Z AUTO 18006KT 10SM OVC007 28/28 A3002 RMK AO2 T02750275